Time;durP1;ratioP1;P1;durP2;ratioP2;P2;SDS_P1;SDS_P2;PMS_P1;PMS_P2;Temp;Humidity;BMP_temperature;BMP_pressure;BME280_temperature;BME280_humidity;BME280_pressure;Samples;Min_cycle;Max_cycle;Signal;HPM_P1;HPM_P2
2022/09/10 00:01:59;;;;;;;10.98;5.25;;;;;;;13.97;100.00;100860.84;5046704;28;20026;-49
2022/09/10 00:04:24;;;;;;;11.02;4.85;;;;;;;13.97;100.00;100860.00;5054498;28;20037;-50
2022/09/10 00:06:50;;;;;;;13.00;5.72;;;;;;;14.00;100.00;100862.38;5029046;28;20395;-50
2022/09/10 00:09:15;;;;;;;10.30;5.10;;;;;;;14.00;100.00;100862.38;5037177;28;20025;-50
2022/09/10 00:11:41;;;;;;;10.88;5.28;;;;;;;14.00;100.00;100852.53;5028792;28;20030;-48
2022/09/10 00:14:09;;;;;;;15.45;5.30;;;;;;;13.99;100.00;100858.88;5038954;28;20036;-48
2022/09/10 00:16:34;;;;;;;13.48;5.85;;;;;;;14.01;100.00;100856.06;5055604;28;20021;-49
2022/09/10 00:19:00;;;;;;;13.63;4.95;;;;;;;14.00;100.00;100852.53;5055195;28;20028;-49
2022/09/10 00:21:26;;;;;;;9.57;4.88;;;;;;;14.00;100.00;100849.03;5033216;28;20029;-49
2022/09/10 00:23:53;;;;;;;11.43;4.60;;;;;;;14.01;100.00;100853.41;5034178;28;20035;-48
2022/09/10 00:26:22;;;;;;;7.90;4.78;;;;;;;14.00;100.00;100849.88;5036656;28;20018;-48
2022/09/10 00:28:50;;;;;;;11.27;4.75;;;;;;;14.01;100.00;100848.06;5036531;28;20029;-50
2022/09/10 00:31:15;;;;;;;10.05;4.70;;;;;;;13.99;100.00;100850.00;5031712;28;20108;-48
2022/09/10 00:33:41;;;;;;;10.38;5.45;;;;;;;14.00;100.00;100849.88;5035831;28;20172;-48
2022/09/10 00:36:15;;;;;;;12.43;5.10;;;;;;;13.99;100.00;100850.88;5039940;28;20025;-48
2022/09/10 00:38:40;;;;;;;14.35;5.25;;;;;;;14.00;100.00;100852.53;5035986;28;20025;-48
2022/09/10 00:41:07;;;;;;;12.77;4.97;;;;;;;13.99;100.00;100848.19;5034531;28;20028;-51
2022/09/10 00:43:45;;;;;;;10.75;4.97;;;;;;;14.02;100.00;100855.06;5054841;28;20090;-51
2022/09/10 00:46:11;;;;;;;11.40;5.70;;;;;;;14.00;100.00;100849.88;5053399;28;20021;-49
2022/09/10 00:48:36;;;;;;;18.15;5.38;;;;;;;14.00;100.00;100847.19;5046120;28;20091;-49
2022/09/10 00:51:12;;;;;;;11.55;5.32;;;;;;;14.00;100.00;100844.53;5074667;22;20353;-79
2022/09/10 00:53:38;;;;;;;14.48;5.80;;;;;;;14.00;100.00;100849.03;5036331;28;20044;-79
2022/09/10 00:56:04;;;;;;;12.30;5.57;;;;;;;13.99;100.00;100845.53;5044529;28;20082;-79
2022/09/10 00:58:30;;;;;;;10.93;5.63;;;;;;;14.01;100.00;100853.41;5029539;28;20029;-80
2022/09/10 01:01:00;;;;;;;12.57;5.57;;;;;;;14.01;100.00;100858.75;5041740;28;20033;-79
2022/09/10 01:03:28;;;;;;;10.15;5.88;;;;;;;14.01;100.00;100854.25;5034135;28;20041;-79
2022/09/10 01:05:58;;;;;;;11.70;5.95;;;;;;;14.03;100.00;100859.44;5042391;28;20484;-78
2022/09/10 01:08:23;;;;;;;12.65;6.63;;;;;;;14.05;100.00;100865.47;5043429;28;20484;-78
2022/09/10 01:11:05;;;;;;;13.35;6.28;;;;;;;14.07;100.00;100868.84;5030158;28;20034;-78
2022/09/10 01:14:12;;;;;;;12.95;6.30;;;;;;;14.09;100.00;100860.69;5031212;28;20064;-78
2022/09/10 01:16:56;;;;;;;14.32;6.93;;;;;;;14.10;100.00;100865.91;5021105;28;20076;-77
2022/09/10 01:19:55;;;;;;;12.27;6.00;;;;;;;14.13;100.00;100868.28;5039541;28;20496;-78
2022/09/10 01:22:32;;;;;;;15.05;6.65;;;;;;;14.15;100.00;100870.81;5029152;28;20029;-78
2022/09/10 01:25:22;;;;;;;14.43;6.55;;;;;;;14.17;100.00;100875.06;5038356;28;20197;-78
2022/09/10 01:27:56;;;;;;;15.02;7.07;;;;;;;14.16;100.00;100860.00;5035382;28;20032;-77
2022/09/10 01:30:27;;;;;;;13.75;7.40;;;;;;;14.18;100.00;100868.72;5039050;28;20013;-77
2022/09/10 01:33:11;;;;;;;17.83;7.20;;;;;;;14.21;100.00;100859.59;5039261;28;20476;-77
2022/09/10 01:35:39;;;;;;;15.90;6.95;;;;;;;14.21;100.00;100860.44;5030161;28;20053;-77
2022/09/10 01:38:19;;;;;;;17.52;7.35;;;;;;;14.22;100.00;100864.78;5021616;28;20400;-79
2022/09/10 01:40:45;;;;;;;13.80;7.90;;;;;;;14.21;100.00;100860.44;5038078;28;20033;-77
2022/09/10 01:43:14;;;;;;;15.90;7.63;;;;;;;14.24;100.00;100862.81;5039015;28;20025;-77
2022/09/10 01:46:02;;;;;;;13.68;7.03;;;;;;;14.28;100.00;100863.38;5039420;28;20095;-77
2022/09/10 01:48:49;;;;;;;14.82;7.20;;;;;;;14.28;100.00;100863.38;5037047;28;20022;-78
2022/09/10 01:51:45;;;;;;;18.25;7.88;;;;;;;14.30;100.00;100865.91;5027135;28;20076;-77
2022/09/10 01:54:13;;;;;;;14.50;7.25;;;;;;;14.30;100.00;100860.56;5011994;28;20029;-78
2022/09/10 01:57:24;;;;;;;13.45;6.63;;;;;;;14.32;100.00;100863.94;5039445;28;20498;-78
2022/09/10 01:59:59;;;;;;;18.63;8.02;;;;;;;14.31;100.00;100863.09;5009736;28;20044;-79
2022/09/10 02:02:40;;;;;;;17.92;7.78;;;;;;;14.34;100.00;100856.59;5038139;28;20053;-78
2022/09/10 02:05:11;;;;;;;14.45;7.88;;;;;;;14.33;100.00;100860.28;5037465;28;20029;-79
2022/09/10 02:07:36;;;;;;;16.88;8.20;;;;;;;14.35;100.00;100855.63;5037574;28;20033;-79
2022/09/10 02:10:07;;;;;;;17.73;8.63;;;;;;;14.34;100.00;100848.59;5033976;28;20036;-79
2022/09/10 02:12:34;;;;;;;16.13;8.15;;;;;;;14.36;100.00;100854.66;5038780;28;20068;-79
2022/09/10 02:15:02;;;;;;;16.35;8.07;;;;;;;14.36;100.00;100850.16;5037572;28;20034;-78
2022/09/10 02:17:32;;;;;;;15.47;8.30;;;;;;;14.37;100.00;100846.50;5039284;28;20052;-78
2022/09/10 02:20:00;;;;;;;16.48;8.23;;;;;;;14.38;100.00;100845.50;5037474;28;20480;-78
2022/09/10 02:22:29;;;;;;;14.57;8.10;;;;;;;14.39;100.00;100847.19;5038743;28;20392;-78
2022/09/10 02:24:54;;;;;;;14.23;8.02;;;;;;;14.39;100.00;100841.84;5039450;28;20013;-78
2022/09/10 02:27:20;;;;;;;13.95;8.00;;;;;;;14.40;100.00;100842.69;5032886;28;20032;-78
2022/09/10 02:29:45;;;;;;;14.63;8.18;;;;;;;14.41;100.00;100842.56;5039495;28;20395;-79
2022/09/10 02:32:10;;;;;;;15.87;8.40;;;;;;;14.41;100.00;100839.03;5039375;28;20021;-78
2022/09/10 02:34:36;;;;;;;17.17;7.67;;;;;;;14.42;100.00;100835.38;5040865;28;20334;-79
2022/09/10 02:37:02;;;;;;;17.95;8.35;;;;;;;14.43;100.00;100845.09;5037883;28;20295;-79
2022/09/10 02:39:28;;;;;;;13.30;8.18;;;;;;;14.42;100.00;100840.72;5043241;28;20029;-79
2022/09/10 02:41:54;;;;;;;13.70;7.82;;;;;;;14.42;100.00;100840.72;5040305;28;20018;-79
2022/09/10 02:44:20;;;;;;;16.00;8.63;;;;;;;14.42;100.00;100841.56;5040530;28;20034;-78
2022/09/10 02:46:45;;;;;;;18.13;8.38;;;;;;;14.43;100.00;100837.06;5045012;28;20038;-79
2022/09/10 02:49:10;;;;;;;15.98;8.70;;;;;;;14.43;100.00;100839.75;5046016;28;20033;-79
2022/09/10 02:51:36;;;;;;;13.60;8.67;;;;;;;14.44;100.00;100847.63;5055187;28;20059;-79
2022/09/10 02:54:02;;;;;;;15.90;8.52;;;;;;;14.43;100.00;100840.56;5045198;28;20840;-79
2022/09/10 02:56:27;;;;;;;14.80;9.07;;;;;;;14.43;100.00;100835.22;5044104;28;20031;-79
2022/09/10 02:58:53;;;;;;;14.25;8.23;;;;;;;14.48;100.00;100845.50;5049765;28;20040;-79
2022/09/10 03:01:20;;;;;;;16.88;9.02;;;;;;;14.46;100.00;100831.44;5027182;28;20025;-79
2022/09/10 03:03:51;;;;;;;17.45;8.98;;;;;;;14.49;100.00;100843.66;5048569;28;20029;-79
2022/09/10 03:06:17;;;;;;;17.55;8.52;;;;;;;14.49;100.00;100841.84;5057531;28;20085;-79
2022/09/10 03:08:42;;;;;;;16.60;8.85;;;;;;;14.51;100.00;100842.53;5045832;28;20025;-79
2022/09/10 03:11:08;;;;;;;16.25;9.25;;;;;;;14.52;100.00;100844.25;5036843;28;20029;-79
2022/09/10 03:13:33;;;;;;;15.13;9.13;;;;;;;14.55;100.00;100832.41;5044334;28;20032;-79
2022/09/10 03:16:01;;;;;;;14.40;8.48;;;;;;;14.54;100.00;100841.44;5049322;28;20029;-79
2022/09/10 03:18:27;;;;;;;13.63;8.75;;;;;;;14.55;100.00;100835.06;5061451;28;20056;-79
2022/09/10 03:20:52;;;;;;;19.85;10.02;;;;;;;14.53;100.00;100835.22;5046481;28;20037;-79
2022/09/10 03:23:18;;;;;;;20.05;10.43;;;;;;;14.56;100.00;100840.28;5045791;28;20092;-80
2022/09/10 03:25:43;;;;;;;19.55;9.77;;;;;;;14.55;100.00;100838.56;5055426;28;20025;-80
2022/09/10 03:28:09;;;;;;;17.45;10.18;;;;;;;14.55;100.00;100830.56;5045416;28;20048;-79
2022/09/10 03:30:36;;;;;;;18.65;9.77;;;;;;;14.56;100.00;100834.09;5034952;28;20115;-81
2022/09/10 03:33:02;;;;;;;17.70;11.18;;;;;;;14.57;100.00;100841.97;5047956;28;20138;-80
2022/09/10 03:35:27;;;;;;;18.83;10.68;;;;;;;14.57;100.00;100828.63;5030113;28;20030;-80
2022/09/10 03:37:53;;;;;;;20.33;11.57;;;;;;;14.57;100.00;100828.63;5055501;28;20021;-80
2022/09/10 03:40:18;;;;;;;18.90;10.73;;;;;;;14.57;100.00;100833.97;5047868;28;20371;-80
2022/09/10 03:42:44;;;;;;;17.13;11.25;;;;;;;14.58;100.00;100830.28;5042851;28;20283;-80
2022/09/10 03:45:10;;;;;;;17.95;11.68;;;;;;;14.58;100.00;100829.44;5041585;28;20052;-80
2022/09/10 03:47:36;;;;;;;19.13;12.13;;;;;;;14.60;100.00;100824.81;5041149;28;20101;-80
2022/09/10 03:50:02;;;;;;;16.45;11.10;;;;;;;14.61;100.00;100827.34;5048806;28;20491;-80
2022/09/10 03:52:28;;;;;;;20.23;11.85;;;;;;;14.61;100.00;100831.88;5038975;28;20045;-80
2022/09/10 03:54:54;;;;;;;18.15;11.90;;;;;;;14.61;100.00;100830.03;5036362;28;20026;-80
2022/09/10 03:57:19;;;;;;;19.45;11.77;;;;;;;14.61;100.00;100823.84;5035271;28;20064;-80
2022/09/10 03:59:48;;;;;;;20.60;12.35;;;;;;;14.62;100.00;100825.50;5035740;28;20026;-80
2022/09/10 04:02:14;;;;;;;24.40;13.07;;;;;;;14.62;100.00;100825.50;5035368;28;20026;-80
2022/09/10 04:04:40;;;;;;;21.38;12.85;;;;;;;14.61;100.00;100824.69;5032210;28;20064;-80
2022/09/10 04:07:05;;;;;;;20.58;11.63;;;;;;;14.61;100.00;100822.00;5033458;28;20458;-80
2022/09/10 04:09:31;;;;;;;16.48;11.95;;;;;;;14.63;100.00;100815.69;5040820;28;20026;-80
2022/09/10 04:11:57;;;;;;;19.00;12.68;;;;;;;14.63;100.00;100815.69;5027360;28;20021;-80
2022/09/10 04:14:23;;;;;;;20.00;11.63;;;;;;;14.63;100.00;100815.69;5039959;28;20065;-80
2022/09/10 04:16:48;;;;;;;21.15;12.20;;;;;;;14.63;100.00;100815.69;5042691;28;20138;-80
2022/09/10 04:19:13;;;;;;;17.60;12.20;;;;;;;14.62;100.00;100820.16;5044520;28;20478;-80
2022/09/10 04:21:39;;;;;;;19.65;11.95;;;;;;;14.64;100.00;100814.69;5047705;28;20029;-80
2022/09/10 04:24:05;;;;;;;18.33;12.27;;;;;;;14.63;100.00;100813.84;5046540;28;20590;-80
2022/09/10 04:26:30;;;;;;;24.05;12.27;;;;;;;14.62;100.00;100814.81;5045797;28;20025;-80
2022/09/10 04:28:55;;;;;;;20.40;11.93;;;;;;;14.64;100.00;100812.00;5043910;28;20037;-80
2022/09/10 04:31:21;;;;;;;18.85;11.98;;;;;;;14.65;100.00;100814.53;5042460;28;20324;-80
2022/09/10 04:33:47;;;;;;;20.83;12.43;;;;;;;14.65;100.00;100811.03;5041909;28;20075;-80
2022/09/10 04:36:13;;;;;;;22.00;12.75;;;;;;;14.65;100.00;100809.19;5036085;28;20025;-80
2022/09/10 04:38:40;;;;;;;17.00;12.48;;;;;;;14.65;100.00;100814.53;5043767;28;20021;-80
2022/09/10 04:41:06;;;;;;;18.90;12.23;;;;;;;14.65;100.00;100819.06;5044397;28;20029;-80
2022/09/10 04:43:31;;;;;;;18.05;11.95;;;;;;;14.65;100.00;100816.38;5046704;28;20179;-80
2022/09/10 04:45:57;;;;;;;19.85;12.93;;;;;;;14.66;100.00;100818.91;5032886;28;20021;-80
2022/09/10 04:48:24;;;;;;;18.92;12.05;;;;;;;14.66;100.00;100823.41;5047273;28;20112;-80
2022/09/10 04:50:50;;;;;;;19.30;12.25;;;;;;;14.65;100.00;100819.88;5042799;28;20025;-80
2022/09/10 04:53:16;;;;;;;18.45;13.05;;;;;;;14.64;100.00;100826.25;5038044;28;20087;-80
2022/09/10 04:55:43;;;;;;;20.17;13.73;;;;;;;14.63;100.00;100818.38;5037397;28;20034;-80
2022/09/10 04:58:10;;;;;;;18.10;12.25;;;;;;;14.64;100.00;100825.38;5049751;28;20025;-80
2022/09/10 05:00:35;;;;;;;18.13;12.30;;;;;;;14.65;100.00;100830.56;5045523;28;20090;-80
2022/09/10 05:03:00;;;;;;;18.20;12.85;;;;;;;14.65;100.00;100833.25;5043229;28;20048;-80
2022/09/10 05:05:27;;;;;;;18.83;13.50;;;;;;;14.64;100.00;100828.91;5039023;28;20431;-80
2022/09/10 05:07:52;;;;;;;17.65;13.15;;;;;;;14.65;100.00;100827.06;5052711;28;20092;-81
2022/09/10 05:10:22;;;;;;;21.67;12.85;;;;;;;14.66;100.00;100828.75;5052241;28;20048;-80
2022/09/10 05:12:47;;;;;;;16.85;12.73;;;;;;;14.67;100.00;100827.75;5040846;28;20026;-80
2022/09/10 05:15:13;;;;;;;19.83;13.65;;;;;;;14.67;100.00;100827.75;5048611;28;20115;-80
2022/09/10 05:17:39;;;;;;;16.98;13.68;;;;;;;14.69;100.00;100831.13;5049029;28;20025;-80
2022/09/10 05:20:06;;;;;;;19.17;13.80;;;;;;;14.68;100.00;100824.94;5047244;28;20026;-80
2022/09/10 05:22:35;;;;;;;21.15;14.02;;;;;;;14.70;100.00;100827.47;5045835;28;20029;-80
2022/09/10 05:25:01;;;;;;;18.67;14.63;;;;;;;14.72;100.00;100830.84;5045910;28;20051;-80
2022/09/10 05:27:26;;;;;;;25.50;15.48;;;;;;;14.70;100.00;100830.16;5045432;28;20093;-80
2022/09/10 05:29:51;;;;;;;21.58;15.43;;;;;;;14.72;100.00;100823.69;5027272;28;20112;-79
2022/09/10 05:32:17;;;;;;;21.75;14.73;;;;;;;14.73;100.00;100820.00;5036187;28;20435;-80
2022/09/10 05:34:44;;;;;;;23.50;15.98;;;;;;;14.74;100.00;100829.72;5028033;28;20025;-81
2022/09/10 05:37:10;;;;;;;18.45;15.00;;;;;;;14.76;100.00;100834.94;5044544;28;20025;-80
2022/09/10 05:39:36;;;;;;;22.73;16.42;;;;;;;14.76;100.00;100833.09;5038056;28;20100;-80
2022/09/10 05:42:01;;;;;;;22.88;17.25;;;;;;;14.75;100.00;100822.53;5038131;28;20056;-80
2022/09/10 05:44:26;;;;;;;20.95;16.38;;;;;;;14.78;100.00;100819.56;5042477;28;20026;-80
2022/09/10 05:46:52;;;;;;;24.50;17.17;;;;;;;14.80;100.00;100823.81;5026914;28;20532;-79
2022/09/10 05:49:17;;;;;;;25.08;17.50;;;;;;;14.83;100.00;100829.84;5028564;28;20041;-80
2022/09/10 05:51:42;;;;;;;22.53;17.37;;;;;;;14.82;100.00;100826.31;5054204;28;20125;-80
2022/09/10 05:54:08;;;;;;;27.83;18.40;;;;;;;14.84;100.00;100834.19;5040211;28;20287;-80
2022/09/10 05:56:33;;;;;;;22.33;16.65;;;;;;;14.85;100.00;100833.22;5037294;28;20037;-81
2022/09/10 05:58:59;;;;;;;23.90;17.80;;;;;;;14.85;100.00;100828.69;5035567;28;20017;-80
2022/09/10 06:01:24;;;;;;;24.42;18.42;;;;;;;14.86;100.00;100835.72;5046442;28;20024;-81
2022/09/10 06:03:50;;;;;;;21.73;17.83;;;;;;;14.87;100.00;100832.09;5057048;28;20028;-81
2022/09/10 06:06:16;;;;;;;22.00;16.40;;;;;;;14.86;100.00;100826.88;5045384;28;20029;-81
2022/09/10 06:08:42;;;;;;;23.77;17.67;;;;;;;14.87;100.00;100834.75;5029152;28;20472;-82
2022/09/10 06:11:08;;;;;;;24.40;16.55;;;;;;;14.89;100.00;100835.44;5026998;28;20392;-81
2022/09/10 06:13:37;;;;;;;22.95;16.98;;;;;;;14.91;100.00;100828.13;5038824;28;20028;-81
2022/09/10 06:16:03;;;;;;;21.13;17.57;;;;;;;14.92;100.00;100839.66;5045761;28;20025;-81
2022/09/10 06:18:30;;;;;;;22.38;17.42;;;;;;;14.92;100.00;100836.97;5039944;28;20032;-80
2022/09/10 06:21:06;;;;;;;27.40;18.83;;;;;;;14.91;100.00;100840.66;5055296;28;20107;-81
2022/09/10 06:23:32;;;;;;;20.25;17.27;;;;;;;14.91;100.00;100825.44;5036022;28;20079;-81
2022/09/10 06:26:03;;;;;;;24.92;17.50;;;;;;;14.94;100.00;100840.38;5055616;28;20491;-81
2022/09/10 06:28:30;;;;;;;21.92;18.35;;;;;;;14.92;100.00;100843.19;5038193;28;20116;-82
2022/09/10 06:30:56;;;;;;;23.88;19.77;;;;;;;14.93;100.00;100844.03;5048372;28;20111;-82
2022/09/10 06:33:21;;;;;;;21.75;19.33;;;;;;;14.91;100.00;100841.50;5033951;28;20127;-82
2022/09/10 06:35:57;;;;;;;25.10;18.90;;;;;;;14.93;100.00;100850.19;5046370;28;20036;-82
2022/09/10 06:38:23;;;;;;;22.85;18.48;;;;;;;14.93;100.00;100846.69;5030082;28;20046;-81
2022/09/10 06:40:53;;;;;;;22.75;19.38;;;;;;;14.90;100.00;100839.78;4996609;28;20036;-82
2022/09/10 06:43:21;;;;;;;21.92;19.00;;;;;;;14.93;100.00;100847.53;5028746;28;20068;-81
2022/09/10 06:45:46;;;;;;;23.02;19.02;;;;;;;14.95;100.00;100847.38;5033818;28;20037;-81
2022/09/10 06:48:11;;;;;;;22.02;19.35;;;;;;;14.95;100.00;100847.38;5033945;28;20415;-83
2022/09/10 06:50:36;;;;;;;22.77;19.30;;;;;;;14.95;100.00;100850.06;5034195;28;20060;-81
2022/09/10 06:53:02;;;;;;;22.30;19.90;;;;;;;14.94;100.00;100849.22;5018566;28;20044;-81
2022/09/10 06:55:27;;;;;;;22.17;19.90;;;;;;;14.95;100.00;100850.91;5031736;28;20291;-81
2022/09/10 06:57:52;;;;;;;24.87;21.33;;;;;;;14.97;100.00;100856.97;5028446;28;20038;-81
2022/09/10 07:00:21;;;;;;;22.63;20.33;;;;;;;14.97;100.00;100856.97;5038387;28;20342;-82
2022/09/10 07:02:47;;;;;;;23.77;21.10;;;;;;;15.00;100.00;100855.81;5038602;28;20033;-81
2022/09/10 07:05:13;;;;;;;23.17;20.73;;;;;;;15.01;100.00;100845.97;5052040;28;20025;-81
2022/09/10 07:07:38;;;;;;;20.95;18.38;;;;;;;15.03;100.00;100858.19;5037908;28;20028;-81
2022/09/10 07:10:05;;;;;;;23.83;19.60;;;;;;;15.06;100.00;100865.09;5038685;28;20038;-81
2022/09/10 07:12:31;;;;;;;19.58;16.67;;;;;;;15.07;100.00;100854.25;5036282;28;20463;-83
2022/09/10 07:14:57;;;;;;;20.20;17.45;;;;;;;15.08;100.00;100853.25;5031604;28;20076;-80
2022/09/10 07:17:22;;;;;;;20.90;16.73;;;;;;;15.11;100.00;100860.97;5031527;28;20037;-80
2022/09/10 07:19:47;;;;;;;20.08;16.88;;;;;;;15.12;100.00;100856.47;5035328;28;20034;-81
2022/09/10 07:22:17;;;;;;;19.77;17.20;;;;;;;15.12;100.00;100872.50;5043440;28;20052;-81
2022/09/10 07:24:42;;;;;;;20.10;17.45;;;;;;;15.12;100.00;100870.69;5045087;28;20647;-82
2022/09/10 07:27:09;;;;;;;19.52;16.88;;;;;;;15.12;100.00;100872.50;5034993;28;20025;-82
2022/09/10 07:29:35;;;;;;;20.98;17.13;;;;;;;15.12;100.00;100878.72;5041849;28;20046;-81
2022/09/10 07:32:03;;;;;;;19.95;17.20;;;;;;;15.14;100.00;100862.53;5008736;28;20369;-81
2022/09/10 07:34:29;;;;;;;19.23;16.58;;;;;;;15.14;100.00;100876.75;5036526;28;20038;-81
2022/09/10 07:36:55;;;;;;;19.80;17.73;;;;;;;15.18;100.00;100874.63;5043223;28;20037;-80
2022/09/10 07:39:22;;;;;;;20.70;16.73;;;;;;;15.21;100.00;100871.66;5041331;28;20041;-81
2022/09/10 07:41:47;;;;;;;22.90;18.50;;;;;;;15.27;100.00;100872.88;5036920;28;20049;-81
2022/09/10 07:44:13;;;;;;;21.40;19.00;;;;;;;15.32;100.00;100884.84;5042068;28;20040;-81
2022/09/10 07:46:38;;;;;;;20.42;17.25;;;;;;;15.35;100.00;100881.00;5023477;28;20026;-81
2022/09/10 07:49:03;;;;;;;19.15;17.15;;;;;;;15.40;100.00;100883.25;5027798;28;20492;-81
2022/09/10 07:51:29;;;;;;;21.40;19.10;;;;;;;15.44;100.00;100884.66;5041634;28;20045;-81
2022/09/10 07:53:56;;;;;;;20.50;18.38;;;;;;;15.44;100.00;100888.16;5042747;28;20321;-81
2022/09/10 07:56:22;;;;;;;20.25;18.15;;;;;;;15.48;100.00;100880.69;5039591;28;20029;-81
2022/09/10 07:58:48;;;;;;;21.23;19.10;;;;;;;15.49;100.00;100885.88;5041819;28;20041;-82
2022/09/10 08:01:14;;;;;;;20.95;18.92;;;;;;;15.52;100.00;100892.75;5047330;28;20100;-81
2022/09/10 08:03:40;;;;;;;21.50;19.48;;;;;;;15.55;100.00;100897.81;5044472;28;20022;-81
2022/09/10 08:06:07;;;;;;;22.13;19.92;;;;;;;15.58;100.00;100894.84;5042578;28;20052;-81
2022/09/10 08:08:37;;;;;;;23.08;20.88;;;;;;;15.59;100.00;100896.56;5042605;28;20026;-81
2022/09/10 08:11:08;;;;;;;;;;;;;;;15.69;100.00;100902.69;5039695;28;20074;-81
2022/09/10 08:13:35;;;;;;;22.15;19.88;;;;;;;15.70;100.00;100901.72;5039012;28;19917;-81
2022/09/10 08:16:05;;;;;;;22.35;20.05;;;;;;;15.72;100.00;100907.75;5028590;28;20086;-82
2022/09/10 08:18:30;;;;;;;21.92;19.58;;;;;;;15.75;100.00;100913.78;5036282;28;20417;-82
2022/09/10 08:20:56;;;;;;;22.35;20.02;;;;;;;15.77;100.00;100910.03;5039261;28;20056;-82
2022/09/10 08:23:21;;;;;;;22.70;20.33;;;;;;;15.83;100.00;100914.75;5030372;28;20033;-81
2022/09/10 08:25:50;;;;;;;20.98;18.77;;;;;;;15.85;100.00;100925.31;5034740;28;20053;-82
2022/09/10 08:28:17;;;;;;;20.92;18.92;;;;;;;15.84;100.00;100923.66;5030137;28;20032;-82
2022/09/10 08:30:42;;;;;;;21.23;18.92;;;;;;;15.88;100.00;100927.69;5022839;28;20457;-83
2022/09/10 08:33:08;;;;;;;20.40;18.48;;;;;;;15.94;100.00;100932.47;5042179;28;20022;-82
2022/09/10 08:35:33;;;;;;;20.90;18.48;;;;;;;15.98;100.00;100925.78;5036345;28;20045;-83
2022/09/10 08:37:59;;;;;;;20.42;17.10;;;;;;;16.02;100.00;100937.06;5031030;28;20032;-82
2022/09/10 08:40:24;;;;;;;19.55;16.95;;;;;;;16.10;100.00;100942.50;5039750;28;20032;-82
2022/09/10 08:42:51;;;;;;;19.10;16.38;;;;;;;16.14;100.00;100943.03;5038574;28;20112;-83
2022/09/10 08:45:22;;;;;;;17.85;16.08;;;;;;;16.18;100.00;100949.78;5040295;28;20029;-83
2022/09/10 08:47:57;;;;;;;17.48;15.75;;;;;;;16.20;100.00;100951.31;5030531;28;20046;-82
2022/09/10 08:50:48;;;;;;;15.77;13.95;;;;;;;16.22;100.00;100954.69;5023223;28;20037;-83
2022/09/10 08:53:25;;;;;;;18.08;14.80;;;;;;;16.21;100.00;100957.53;5020553;28;20393;-82
2022/09/10 08:55:58;;;;;;;15.40;13.82;;;;;;;16.19;100.00;100960.34;5013951;28;20077;-82
2022/09/10 08:58:30;;;;;;;16.45;13.60;;;;;;;16.18;100.00;100961.34;5015921;28;20045;-82
2022/09/10 09:01:01;;;;;;;15.95;12.85;;;;;;;16.17;100.00;100962.34;5026991;28;20057;-82
2022/09/10 09:03:44;;;;;;;16.45;14.73;;;;;;;16.19;100.00;100967.56;5026237;28;20037;-83
2022/09/10 09:06:29;;;;;;;13.95;12.55;;;;;;;16.18;100.00;100965.88;5025457;28;20067;-83
2022/09/10 09:08:55;;;;;;;14.25;12.77;;;;;;;16.16;100.00;100973.22;5017528;28;20404;-83
2022/09/10 09:11:48;;;;;;;18.10;13.25;;;;;;;16.17;100.00;100967.72;5014445;28;20026;-81
2022/09/10 09:14:47;;;;;;;15.63;13.13;;;;;;;16.18;100.00;100968.53;4999331;28;20057;-82
2022/09/10 09:17:33;;;;;;;15.65;13.98;;;;;;;16.21;100.00;100969.09;5010572;28;20018;-82
2022/09/10 09:20:12;;;;;;;16.33;13.32;;;;;;;16.24;100.00;100967.94;5011357;28;20146;-81
2022/09/10 09:22:49;;;;;;;16.70;14.32;;;;;;;16.26;100.00;100964.09;5018494;28;20117;-82
2022/09/10 09:25:22;;;;;;;16.38;14.48;;;;;;;16.32;100.00;100970.72;5009088;28;20068;-82
2022/09/10 09:27:53;;;;;;;16.35;14.70;;;;;;;16.35;100.00;100966.88;5018416;28;20046;-81
2022/09/10 09:30:22;;;;;;;17.08;15.20;;;;;;;16.40;100.00;100970.81;5002726;28;20029;-81
2022/09/10 09:32:48;;;;;;;16.70;15.02;;;;;;;16.45;100.00;100978.38;5021065;28;20108;-82
2022/09/10 09:35:34;;;;;;;19.85;15.23;;;;;;;16.51;100.00;100977.75;5020150;28;20030;-82
2022/09/10 09:38:05;;;;;;;15.82;14.25;;;;;;;16.58;100.00;100980.66;5006488;28;20432;-82
2022/09/10 09:40:43;;;;;;;17.08;15.00;;;;;;;16.63;100.00;100978.38;5017641;28;20040;-82
2022/09/10 09:43:33;;;;;;;16.42;14.68;;;;;;;16.69;100.00;100980.44;5018736;28;20038;-82
2022/09/10 09:46:00;;;;;;;15.15;13.60;;;;;;;16.77;100.00;100976.97;5017628;28;20044;-81
2022/09/10 09:48:35;;;;;;;15.07;13.38;;;;;;;16.77;100.00;100977.84;5019526;28;20061;-82
2022/09/10 09:51:03;;;;;;;14.43;12.70;;;;;;;16.78;100.00;100979.50;5022092;28;20090;-82
2022/09/10 09:53:29;;;;;;;15.35;13.68;;;;;;;16.81;100.00;100981.88;5037397;28;20040;-81
2022/09/10 09:55:58;;;;;;;16.77;12.88;;;;;;;16.80;100.00;100984.72;5037435;28;20036;-82
2022/09/10 09:58:25;;;;;;;16.20;13.15;;;;;;;16.82;100.00;100980.06;5039843;28;20148;-81
2022/09/10 10:01:03;;;;;;;26.55;18.95;;;;;;;16.82;100.00;100972.00;5041960;28;20039;-82
2022/09/10 10:03:50;;;;;;;16.20;12.20;;;;;;;16.82;100.00;100975.53;5038936;28;20037;-82
2022/09/10 10:06:18;;;;;;;21.58;15.65;;;;;;;16.83;100.00;100971.00;5041554;28;20040;-81
2022/09/10 10:08:59;;;;;;;48.13;32.05;;;;;;;16.86;100.00;100976.09;5034959;28;20057;-82
2022/09/10 10:11:44;;;;;;;26.75;21.63;;;;;;;16.93;100.00;100970.94;5034711;28;20087;-82
2022/09/10 10:14:21;;;;;;;16.05;11.60;;;;;;;16.95;100.00;100985.03;5040753;28;20036;-82
2022/09/10 10:16:51;;;;;;;16.90;10.93;;;;;;;16.93;100.00;100990.56;5023799;28;20435;-81
2022/09/10 10:19:35;;;;;;;;;;;;;;;17.08;100.00;101000.72;5031106;28;20471;-82
2022/09/10 10:22:19;;;;;;;18.00;12.15;;;;;;;17.14;100.00;101003.63;5030663;28;20296;-81
2022/09/10 10:24:47;;;;;;;16.17;11.98;;;;;;;17.20;100.00;100983.38;5021020;28;20068;-81
2022/09/10 10:27:31;;;;;;;14.68;11.65;;;;;;;17.31;100.00;100988.47;5029613;28;20073;-81
2022/09/10 10:30:20;;;;;;;15.02;11.55;;;;;;;17.37;100.00;100989.72;5030794;28;20030;-81
2022/09/10 10:32:57;;;;;;;16.67;10.80;;;;;;;17.42;100.00;100992.75;5035109;28;20057;-80
2022/09/10 10:35:31;;;;;;;14.93;10.73;;;;;;;17.44;100.00;100996.13;5043067;28;20396;-81
2022/09/10 10:38:06;;;;;;;12.60;10.30;;;;;;;17.48;100.00;101002.84;5032595;28;20127;-80
2022/09/10 10:40:42;;;;;;;11.68;9.30;;;;;;;17.47;100.00;100995.81;5034531;28;20037;-80
2022/09/10 10:43:25;;;;;;;10.85;9.60;;;;;;;17.48;100.00;100994.78;5011796;28;20041;-80
2022/09/10 10:46:03;;;;;;;12.07;8.40;;;;;;;17.52;100.00;101004.22;5028407;28;20507;-81
2022/09/10 10:48:54;;;;;;;12.68;8.85;;;;;;;17.54;100.00;101002.22;5038759;28;20029;-80
2022/09/10 10:51:50;;;;;;;13.05;7.78;;;;;;;17.59;100.00;101011.66;5017567;28;20053;-81
2022/09/10 10:54:39;;;;;;;12.25;7.63;;;;;;;17.55;100.00;101011.09;5032334;28;20052;-81
2022/09/10 10:57:26;;;;;;;12.77;7.80;;;;;;;17.50;100.00;101014.28;5030126;28;20112;-81
2022/09/10 11:00:11;;;;;;;11.43;7.30;;;;;;;17.53;100.00;101018.47;5026954;28;20484;-81
2022/09/10 11:03:00;;;;;;;10.48;6.82;;;;;;;17.53;100.00;101013.09;5045301;28;20095;-81
2022/09/10 11:05:56;;;;;;;14.27;7.53;;;;;;;17.49;100.00;101011.75;5041217;28;20037;-81
2022/09/10 11:08:46;;;;;;;9.80;7.20;;;;;;;17.48;100.00;101005.53;5030317;28;20111;-81
2022/09/10 11:11:20;;;;;;;11.45;7.22;;;;;;;17.41;100.00;101007.16;5035709;28;20021;-82
2022/09/10 11:13:54;;;;;;;14.90;7.75;;;;;;;17.36;100.00;101001.44;5048364;28;20083;-82
2022/09/10 11:16:28;;;;;;;13.55;8.00;;;;;;;17.36;100.00;101015.69;5031012;28;20505;-80
2022/09/10 11:19:02;;;;;;;14.70;7.07;;;;;;;17.36;100.00;101018.38;5017866;28;20460;-80